Time;durP1;ratioP1;P1;durP2;ratioP2;P2;SDS_P1;SDS_P2;PMS_P1;PMS_P2;Temp;Humidity;BMP_temperature;BMP_pressure;BME280_temperature;BME280_humidity;BME280_pressure;Samples;Min_cycle;Max_cycle;Signal;HPM_P1;HPM_P2
2022/09/19 00:01:32;;;;;;;16.60;3.22;;;12.00;99.90;;;;;;5052428;28;20095;-65
2022/09/19 00:04:01;;;;;;;12.65;2.08;;;12.10;99.90;;;;;;5040413;28;20541;-66
2022/09/19 00:06:28;;;;;;;10.68;2.28;;;11.90;99.90;;;;;;5051223;28;20053;-66
2022/09/19 00:08:55;;;;;;;11.43;2.33;;;12.10;99.90;;;;;;5051023;28;20049;-65
2022/09/19 00:11:22;;;;;;;12.57;2.03;;;12.10;99.90;;;;;;5052529;28;20083;-65
2022/09/19 00:13:49;;;;;;;10.82;2.05;;;12.10;99.90;;;;;;5052220;28;20449;-66
2022/09/19 00:16:25;;;;;;;13.35;2.03;;;12.10;99.90;;;;;;5052491;28;20168;-66
2022/09/19 00:18:53;;;;;;;12.20;1.65;;;12.00;99.90;;;;;;5052275;28;20037;-65
2022/09/19 00:21:21;;;;;;;9.43;2.30;;;12.10;99.90;;;;;;5050787;28;20080;-65
2022/09/19 00:26:31;;;;;;;8.52;1.67;;;12.00;99.90;;;;;;5056233;28;20068;-66
2022/09/19 00:28:57;;;;;;;15.65;3.20;;;12.10;99.90;;;;;;5054823;28;20440;-66
2022/09/19 00:31:22;;;;;;;11.30;1.30;;;12.00;99.90;;;;;;5054539;28;20043;-65
2022/09/19 00:33:49;;;;;;;12.13;2.13;;;12.00;99.90;;;;;;5055907;28;20099;-66
2022/09/19 00:36:15;;;;;;;7.68;1.58;;;11.90;99.90;;;;;;5056074;28;20041;-65
2022/09/19 00:38:41;;;;;;;9.88;1.98;;;12.00;99.90;;;;;;5054473;28;20048;-65
2022/09/19 00:41:08;;;;;;;11.15;2.20;;;11.90;99.90;;;;;;5055799;28;20494;-66
2022/09/19 00:43:53;;;;;;;11.80;2.42;;;12.10;99.90;;;;;;5056118;28;20032;-65
2022/09/19 00:46:20;;;;;;;;;;;11.90;99.90;;;;;;5063328;28;20071;-65
2022/09/19 00:48:50;;;;;;;9.98;1.60;;;11.90;99.90;;;;;;5055646;28;19922;-65
2022/09/19 00:51:22;;;;;;;12.73;2.03;;;12.10;99.90;;;;;;5055947;28;20492;-65
2022/09/19 00:53:48;;;;;;;9.55;1.48;;;12.00;99.90;;;;;;5055589;28;20041;-65
2022/09/19 00:56:16;;;;;;;6.50;1.50;;;12.00;99.90;;;;;;5055550;28;20037;-66
2022/09/19 00:58:44;;;;;;;10.77;1.90;;;12.00;99.90;;;;;;5055958;28;20049;-65
2022/09/19 01:01:11;;;;;;;9.02;1.73;;;11.90;99.90;;;;;;5055131;28;20406;-66
2022/09/19 01:03:37;;;;;;;7.22;1.65;;;12.00;99.90;;;;;;5055180;28;20080;-65
2022/09/19 01:06:34;;;;;;;15.55;2.05;;;12.00;99.90;;;;;;5055517;28;20072;-65
2022/09/19 01:09:30;;;;;;;11.55;2.08;;;12.10;99.90;;;;;;5053860;28;20045;-65
2022/09/19 01:12:15;;;;;;;13.20;2.70;;;12.00;99.90;;;;;;5055408;28;20041;-66
2022/09/19 01:15:32;;;;;;;6.03;1.80;;;11.90;99.90;;;;;;5043740;28;20486;-65
2022/09/19 01:18:00;;;;;;;17.00;2.72;;;11.80;99.90;;;;;;4977371;28;20092;-65
2022/09/19 01:20:41;;;;;;;13.13;2.88;;;12.00;99.90;;;;;;4993785;28;20042;-65
2022/09/19 01:23:24;;;;;;;19.30;2.65;;;11.80;99.90;;;;;;5029557;28;20045;-65
2022/09/19 01:26:32;;;;;;;11.50;2.00;;;11.80;99.90;;;;;;5055088;28;20037;-65
2022/09/19 01:29:28;;;;;;;13.10;2.33;;;11.80;99.90;;;;;;5043656;28;20060;-65
2022/09/19 01:31:57;;;;;;;9.75;1.75;;;11.70;99.90;;;;;;5043878;28;20064;-65
2022/09/19 01:34:37;;;;;;;9.68;1.40;;;11.60;99.90;;;;;;5049037;28;20036;-65
2022/09/19 01:37:17;;;;;;;12.93;1.77;;;11.80;99.90;;;;;;5054129;28;20487;-65
2022/09/19 01:39:46;;;;;;;9.10;1.70;;;11.90;99.90;;;;;;5054898;28;20037;-65
2022/09/19 01:42:14;;;;;;;6.63;1.77;;;12.00;99.90;;;;;;5054509;28;20040;-65
2022/09/19 01:44:39;;;;;;;10.75;1.88;;;11.80;99.90;;;;;;5060758;28;20116;-65
2022/09/19 01:47:05;;;;;;;13.18;2.22;;;11.80;99.90;;;;;;5054322;28;20454;-65
2022/09/19 01:50:05;;;;;;;8.40;1.77;;;11.80;99.90;;;;;;5052950;28;20499;-65
2022/09/19 01:52:34;;;;;;;9.93;1.88;;;11.60;99.90;;;;;;5069726;28;20036;-65
2022/09/19 01:55:13;;;;;;;11.93;2.42;;;11.60;99.90;;;;;;5054419;28;20033;-65
2022/09/19 01:58:04;;;;;;;8.93;2.00;;;11.50;99.90;;;;;;5053238;28;20075;-65
2022/09/19 02:00:31;;;;;;;17.75;2.35;;;11.60;99.90;;;;;;5040543;28;20083;-66
2022/09/19 02:03:23;;;;;;;11.98;1.60;;;11.70;99.90;;;;;;5054238;28;20514;-65
2022/09/19 02:06:00;;;;;;;11.65;1.95;;;11.50;99.90;;;;;;5042215;28;20049;-64
2022/09/19 02:08:41;;;;;;;9.80;1.75;;;11.70;99.90;;;;;;5053931;28;20041;-65
2022/09/19 02:11:11;;;;;;;8.13;1.85;;;11.50;99.90;;;;;;5036300;28;20506;-65
2022/09/19 02:13:44;;;;;;;12.35;2.53;;;11.50;99.90;;;;;;5053927;28;20037;-65
2022/09/19 02:16:16;;;;;;;12.10;1.88;;;11.50;99.90;;;;;;5053998;28;20037;-65
2022/09/19 02:19:14;;;;;;;10.52;2.25;;;11.40;99.90;;;;;;5052649;28;20037;-65
2022/09/19 02:21:45;;;;;;;16.25;2.28;;;11.30;99.90;;;;;;5044463;28;20134;-65
2022/09/19 02:24:17;;;;;;;11.40;2.28;;;11.40;99.90;;;;;;5039015;28;20048;-65
2022/09/19 02:26:51;;;;;;;15.93;2.88;;;11.50;99.90;;;;;;5053777;28;20089;-65
2022/09/19 02:29:20;;;;;;;13.80;2.60;;;11.70;99.90;;;;;;5040091;28;20047;-65
2022/09/19 02:31:46;;;;;;;12.77;2.03;;;11.60;99.90;;;;;;5053792;28;20033;-65
2022/09/19 02:34:12;;;;;;;16.52;2.40;;;11.30;99.90;;;;;;5053610;28;20048;-65
2022/09/19 02:37:07;;;;;;;12.25;2.42;;;11.50;99.90;;;;;;5052373;28;20095;-65
2022/09/19 02:40:12;;;;;;;16.85;2.28;;;11.30;99.90;;;;;;5040518;28;20498;-66
2022/09/19 02:42:52;;;;;;;23.10;2.77;;;11.50;99.90;;;;;;5052218;28;20064;-65
2022/09/19 02:45:28;;;;;;;17.48;1.95;;;11.60;99.90;;;;;;5056553;28;20458;-65
2022/09/19 02:48:07;;;;;;;15.20;2.30;;;11.70;99.90;;;;;;5053308;28;20066;-65
2022/09/19 02:50:50;;;;;;;14.23;2.15;;;11.70;99.90;;;;;;5052186;28;20126;-65
2022/09/19 02:53:21;;;;;;;13.27;2.67;;;11.60;99.90;;;;;;5040006;28;20067;-65
2022/09/19 02:55:55;;;;;;;15.35;2.80;;;11.60;99.90;;;;;;5053481;28;20490;-65
2022/09/19 02:58:23;;;;;;;11.07;2.70;;;11.60;99.90;;;;;;5039790;28;20052;-66
2022/09/19 03:00:54;;;;;;;11.10;2.28;;;11.60;99.90;;;;;;5053227;28;20303;-65
2022/09/19 03:06:13;;;;;;;16.88;2.42;;;11.80;99.90;;;;;;5052250;28;20067;-65
2022/09/19 03:08:41;;;;;;;9.65;2.13;;;11.70;99.90;;;;;;5053003;28;20052;-65
2022/09/19 03:11:14;;;;;;;17.23;2.47;;;11.90;99.90;;;;;;5051885;28;20045;-65
2022/09/19 03:13:41;;;;;;;13.30;2.45;;;12.00;99.90;;;;;;5035024;28;20052;-66
2022/09/19 03:16:18;;;;;;;10.30;2.03;;;11.80;99.90;;;;;;5048415;28;20082;-65
2022/09/19 03:18:46;;;;;;;15.48;2.38;;;11.80;99.90;;;;;;5039039;28;20068;-65
2022/09/19 03:21:13;;;;;;;12.43;2.28;;;11.90;99.90;;;;;;5051926;28;20391;-65
2022/09/19 03:23:48;;;;;;;12.25;1.73;;;11.90;99.90;;;;;;5051533;28;20044;-65
2022/09/19 03:26:18;;;;;;;15.20;2.85;;;11.80;99.90;;;;;;5052918;28;20044;-65
2022/09/19 03:28:44;;;;;;;14.85;2.65;;;11.80;99.90;;;;;;5052757;28;20045;-65
2022/09/19 03:31:10;;;;;;;12.65;2.10;;;11.90;99.90;;;;;;5052863;28;20055;-65
2022/09/19 03:33:35;;;;;;;13.13;2.47;;;12.00;99.90;;;;;;5052524;28;20035;-65
2022/09/19 03:36:07;;;;;;;14.32;2.38;;;12.00;99.90;;;;;;5052774;28;20494;-65
2022/09/19 03:38:35;;;;;;;9.20;2.40;;;12.00;99.90;;;;;;5037391;28;20056;-65
2022/09/19 03:41:00;;;;;;;13.73;2.10;;;12.00;99.90;;;;;;5051346;28;20036;-65
2022/09/19 03:43:28;;;;;;;16.70;2.40;;;;;;;;;;5052724;28;20403;-65
2022/09/19 03:45:53;;;;;;;11.45;2.25;;;12.00;99.90;;;;;;5056757;28;20410;-65
2022/09/19 03:48:20;;;;;;;8.32;1.92;;;12.00;99.90;;;;;;5051370;28;20132;-65
2022/09/19 03:50:45;;;;;;;16.15;2.33;;;11.90;99.90;;;;;;5052645;28;20507;-65
2022/09/19 03:53:11;;;;;;;17.42;2.08;;;11.80;99.90;;;;;;5038436;28;20025;-65
2022/09/19 03:55:37;;;;;;;7.53;1.48;;;11.90;99.90;;;;;;5052752;28;20033;-65
2022/09/19 03:58:04;;;;;;;14.90;2.20;;;12.00;99.90;;;;;;5052542;28;20115;-65
2022/09/19 04:00:30;;;;;;;11.32;2.70;;;11.90;99.90;;;;;;5055250;28;20106;-65
2022/09/19 04:02:56;;;;;;;16.13;1.80;;;11.90;99.90;;;;;;5055031;28;20056;-65
2022/09/19 04:05:22;;;;;;;11.20;2.25;;;11.90;99.90;;;;;;5055242;28;20505;-65
2022/09/19 04:07:48;;;;;;;14.45;1.92;;;11.80;99.90;;;;;;5056500;28;20045;-65
2022/09/19 04:10:14;;;;;;;16.10;2.40;;;11.80;99.90;;;;;;5055497;28;20041;-65
2022/09/19 04:12:40;;;;;;;9.45;2.22;;;11.60;99.90;;;;;;5056319;28;20041;-65
2022/09/19 04:15:07;;;;;;;9.00;2.22;;;11.60;99.90;;;;;;5038427;28;20372;-65
2022/09/19 04:17:33;;;;;;;14.15;2.15;;;11.70;99.90;;;;;;5056336;28;20517;-65
2022/09/19 04:19:58;;;;;;;10.90;2.60;;;11.50;99.90;;;;;;5056005;28;20040;-65
2022/09/19 04:22:24;;;;;;;17.92;3.00;;;11.30;99.90;;;;;;5056034;28;20040;-65
2022/09/19 04:24:51;;;;;;;9.88;2.20;;;11.50;99.90;;;;;;5055708;28;20040;-65
2022/09/19 04:27:18;;;;;;;9.25;2.10;;;11.40;99.90;;;;;;5042865;28;20047;-65
2022/09/19 04:29:43;;;;;;;8.07;1.83;;;11.30;99.90;;;;;;5054771;28;20045;-65
2022/09/19 04:32:10;;;;;;;9.65;2.22;;;11.10;99.90;;;;;;5054652;28;20037;-65
2022/09/19 04:34:36;;;;;;;16.80;2.28;;;11.10;99.90;;;;;;5056159;28;20395;-65
2022/09/19 04:37:06;;;;;;;13.32;1.98;;;11.20;99.90;;;;;;5055999;28;20037;-65
2022/09/19 04:39:32;;;;;;;11.70;2.40;;;12.30;99.90;;;;;;5054746;28;20052;-65
2022/09/19 04:41:59;;;;;;;15.10;2.20;;;11.10;99.90;;;;;;5055626;28;20060;-65
2022/09/19 04:44:29;;;;;;;11.02;1.95;;;11.00;99.90;;;;;;5059424;28;20044;-65
2022/09/19 04:46:55;;;;;;;6.90;1.90;;;11.10;99.90;;;;;;5054348;28;20048;-65
2022/09/19 04:49:21;;;;;;;10.45;1.88;;;11.00;99.90;;;;;;5054267;28;20072;-65
2022/09/19 04:51:47;;;;;;;11.77;1.70;;;10.90;99.90;;;;;;5055789;28;20114;-65
2022/09/19 04:54:14;;;;;;;16.65;1.85;;;11.00;99.90;;;;;;5055533;28;20120;-65
2022/09/19 04:56:43;;;;;;;11.98;2.28;;;11.00;99.90;;;;;;5054286;28;20055;-65
2022/09/19 04:59:10;;;;;;;15.45;2.92;;;10.80;99.90;;;;;;5041221;28;20446;-65
2022/09/19 05:01:36;;;;;;;16.73;2.55;;;11.00;99.90;;;;;;5054297;28;20128;-65
2022/09/19 05:04:03;;;;;;;15.48;2.08;;;10.90;99.90;;;;;;5054196;28;20048;-65
2022/09/19 05:06:30;;;;;;;8.63;2.42;;;11.00;99.90;;;;;;5055509;28;20029;-65
2022/09/19 05:08:57;;;;;;;10.95;1.90;;;11.00;99.90;;;;;;5055205;28;20052;-65
2022/09/19 05:11:23;;;;;;;10.63;1.90;;;10.90;99.90;;;;;;5052734;28;20095;-65
2022/09/19 05:13:51;;;;;;;9.38;2.13;;;11.00;99.90;;;;;;5053989;28;20036;-65
2022/09/19 05:16:18;;;;;;;4.85;1.45;;;10.90;99.90;;;;;;5055177;28;20036;-65
2022/09/19 05:18:44;;;;;;;9.85;1.85;;;10.90;99.90;;;;;;5040375;28;20063;-65
2022/09/19 05:21:13;;;;;;;16.42;2.20;;;10.90;99.90;;;;;;5055250;28;20037;-65
2022/09/19 05:23:39;;;;;;;9.68;1.73;;;10.80;99.90;;;;;;5054782;28;20116;-65
2022/09/19 05:26:08;;;;;;;10.77;1.60;;;11.00;99.90;;;;;;5053833;28;20116;-65
2022/09/19 05:28:33;;;;;;;8.25;1.50;;;11.00;99.90;;;;;;5050519;28;20037;-65
2022/09/19 05:31:04;;;;;;;6.63;1.73;;;10.90;99.90;;;;;;5044889;28;20541;-65
2022/09/19 05:33:31;;;;;;;8.95;1.70;;;11.00;99.90;;;;;;5054644;28;20044;-65
2022/09/19 05:36:00;;;;;;;11.85;2.72;;;10.90;99.90;;;;;;5054906;28;20078;-65
2022/09/19 05:38:27;;;;;;;4.32;1.58;;;11.10;99.90;;;;;;5053753;28;20049;-65
2022/09/19 05:40:53;;;;;;;8.75;2.30;;;11.00;99.90;;;;;;5054722;28;20052;-65
2022/09/19 05:43:19;;;;;;;8.63;1.55;;;11.00;99.90;;;;;;5054607;28;20065;-65
2022/09/19 05:45:46;;;;;;;10.60;1.65;;;10.90;99.90;;;;;;5059595;28;20135;-65
2022/09/19 05:48:12;;;;;;;7.28;1.73;;;11.00;99.90;;;;;;5054565;28;20045;-65
2022/09/19 05:50:38;;;;;;;10.23;1.70;;;10.90;99.90;;;;;;5053554;28;20395;-65
2022/09/19 05:55:48;;;;;;;12.18;1.50;;;10.90;99.90;;;;;;5040108;28;20513;-65
2022/09/19 05:58:17;;;;;;;12.57;2.08;;;11.10;99.90;;;;;;5053851;28;20119;-65
2022/09/19 06:00:43;;;;;;;8.15;2.10;;;11.00;99.90;;;;;;5054070;28;20538;-65
2022/09/19 06:03:11;;;;;;;11.32;1.60;;;11.10;99.90;;;;;;5054254;28;20044;-65
2022/09/19 06:05:40;;;;;;;13.07;2.17;;;11.10;99.90;;;;;;5054382;28;20045;-65
2022/09/19 06:08:07;;;;;;;7.40;1.83;;;11.10;99.90;;;;;;5054116;28;20048;-65
2022/09/19 06:10:35;;;;;;;11.05;2.00;;;11.00;99.90;;;;;;5054131;28;20041;-65
2022/09/19 06:13:01;;;;;;;13.65;2.53;;;11.30;99.90;;;;;;5052347;28;20104;-65
2022/09/19 06:15:26;;;;;;;7.53;1.45;;;11.20;99.90;;;;;;5054056;28;20095;-66
2022/09/19 06:17:56;;;;;;;10.98;1.60;;;11.10;99.90;;;;;;5054099;28;20041;-66
2022/09/19 06:20:22;;;;;;;10.48;2.05;;;11.10;99.90;;;;;;5052379;28;20087;-66
2022/09/19 06:22:49;;;;;;;11.65;1.83;;;11.20;99.90;;;;;;5053482;28;20453;-66
2022/09/19 06:25:15;;;;;;;6.90;1.60;;;11.30;99.90;;;;;;5053527;28;20043;-65
2022/09/19 06:27:44;;;;;;;7.95;1.77;;;11.10;99.90;;;;;;5053898;28;20036;-66
2022/09/19 06:30:10;;;;;;;9.73;2.20;;;11.50;99.90;;;;;;5052395;28;20041;-66
2022/09/19 06:32:38;;;;;;;6.63;1.67;;;11.60;99.90;;;;;;5053556;28;20107;-66
2022/09/19 06:35:04;;;;;;;9.73;1.60;;;11.50;99.90;;;;;;5053546;28;20045;-66
2022/09/19 06:37:30;;;;;;;9.65;2.15;;;;;;;;;;5052490;28;20418;-65
2022/09/19 06:39:56;;;;;;;10.05;2.60;;;11.60;99.90;;;;;;5052488;28;20041;-66
2022/09/19 06:42:22;;;;;;;10.52;2.05;;;11.70;99.90;;;;;;5050205;28;20044;-66
2022/09/19 06:44:48;;;;;;;12.70;1.80;;;11.60;99.90;;;;;;5054069;28;20041;-66
2022/09/19 06:47:14;;;;;;;12.52;2.05;;;;;;;;;;5052829;28;20041;-64
2022/09/19 06:49:40;;;;;;;7.95;1.90;;;11.70;99.90;;;;;;5053277;28;20440;-65
2022/09/19 06:52:06;;;;;;;7.15;1.95;;;11.70;99.90;;;;;;5053356;28;20044;-64
2022/09/19 06:54:31;;;;;;;4.13;1.83;;;11.80;99.90;;;;;;5042120;28;20033;-64
2022/09/19 06:56:57;;;;;;;7.05;1.77;;;11.70;99.90;;;;;;5046406;28;20049;-64
2022/09/19 06:59:22;;;;;;;6.15;1.65;;;11.80;99.90;;;;;;5053369;28;20108;-65
2022/09/19 07:01:49;;;;;;;8.95;1.75;;;;;;;;;;5052298;28;20207;-66
2022/09/19 07:04:15;;;;;;;8.20;1.45;;;12.00;99.90;;;;;;5051347;28;20040;-66
2022/09/19 07:06:40;;;;;;;5.78;1.48;;;12.20;99.90;;;;;;5047251;28;20490;-65
2022/09/19 07:09:09;;;;;;;6.47;1.33;;;12.30;99.90;;;;;;5032949;28;20064;-66
2022/09/19 07:11:36;;;;;;;6.80;1.65;;;12.50;99.90;;;;;;5038129;28;20037;-66
2022/09/19 07:14:03;;;;;;;8.43;1.95;;;12.50;99.90;;;;;;5033441;28;20038;-66
2022/09/19 07:16:28;;;;;;;8.07;2.00;;;12.70;99.90;;;;;;5033480;28;20041;-66
2022/09/19 07:18:54;;;;;;;12.07;3.15;;;12.80;99.90;;;;;;5035376;28;20059;-66
2022/09/19 07:21:20;;;;;;;11.32;1.63;;;12.90;99.90;;;;;;5032388;28;20053;-66
2022/09/19 07:23:47;;;;;;;15.35;1.88;;;13.00;99.90;;;;;;5034258;28;20403;-66
2022/09/19 07:26:13;;;;;;;10.60;1.40;;;13.10;99.90;;;;;;5033626;28;20495;-66
2022/09/19 07:28:39;;;;;;;5.30;1.70;;;13.30;99.90;;;;;;5037439;28;20037;-66
2022/09/19 07:31:05;;;;;;;13.07;1.92;;;13.30;99.90;;;;;;5051361;28;20093;-66
2022/09/19 07:33:31;;;;;;;9.98;2.17;;;13.50;99.90;;;;;;5051938;28;20628;-66
2022/09/19 07:35:57;;;;;;;13.68;2.60;;;13.40;99.90;;;;;;5053152;28;20353;-66
2022/09/19 07:38:24;;;;;;;10.63;1.70;;;13.40;99.90;;;;;;5051420;28;20049;-66
2022/09/19 07:40:50;;;;;;;6.65;1.25;;;13.50;99.90;;;;;;5052764;28;20071;-66
2022/09/19 07:43:16;;;;;;;9.63;1.98;;;13.40;99.90;;;;;;5052618;28;20092;-66
2022/09/19 07:45:45;;;;;;;9.75;1.80;;;14.00;99.90;;;;;;5054428;28;20083;-66
2022/09/19 07:48:11;;;;;;;12.07;2.35;;;13.90;99.90;;;;;;5051339;28;20048;-66
2022/09/19 07:50:37;;;;;;;32.25;14.35;;;14.00;99.90;;;;;;5052445;28;20116;-66
2022/09/19 07:53:14;;;;;;;67.70;37.45;;;14.10;99.90;;;;;;5051260;28;20037;-66
2022/09/19 07:55:44;;;;;;;39.20;26.30;;;14.20;99.90;;;;;;5067860;28;20041;-66
2022/09/19 07:58:11;;;;;;;9.07;3.78;;;14.20;99.90;;;;;;5067673;28;20041;-66
2022/09/19 08:00:39;;;;;;;15.15;2.58;;;14.00;99.90;;;;;;5051057;28;20064;-66
2022/09/19 08:03:12;;;;;;;9.75;1.27;;;14.30;99.90;;;;;;5050907;28;20040;-66
2022/09/19 08:05:40;;;;;;;10.75;2.22;;;14.30;99.90;;;;;;5034510;28;20056;-66
2022/09/19 08:08:09;;;;;;;16.50;2.08;;;14.50;99.90;;;;;;5050749;28;20045;-66
2022/09/19 08:10:35;;;;;;;10.73;1.88;;;14.70;99.90;;;;;;5052443;28;20033;-66
2022/09/19 08:13:05;;;;;;;11.27;1.90;;;14.60;99.90;;;;;;5050827;28;20041;-66
2022/09/19 08:15:33;;;;;;;14.13;1.65;;;14.80;99.90;;;;;;5050695;28;20052;-67
2022/09/19 08:18:01;;;;;;;16.58;2.45;;;14.80;99.90;;;;;;5045229;28;20037;-66
2022/09/19 08:20:29;;;;;;;13.50;1.98;;;14.90;99.90;;;;;;5034475;28;20038;-66
2022/09/19 08:22:59;;;;;;;10.40;2.08;;;15.00;99.90;;;;;;5032718;28;20495;-66
2022/09/19 08:25:26;;;;;;;13.25;1.67;;;15.10;99.90;;;;;;5037064;28;20025;-65
2022/09/19 08:27:52;;;;;;;10.80;2.17;;;15.10;99.90;;;;;;5050440;28;20041;-66
2022/09/19 08:30:19;;;;;;;13.13;2.42;;;15.30;99.90;;;;;;5048391;28;20043;-66
2022/09/19 08:32:46;;;;;;;13.23;2.28;;;15.20;99.90;;;;;;5051330;28;20491;-66
2022/09/19 08:35:12;;;;;;;17.67;3.55;;;15.40;99.90;;;;;;5050901;28;20106;-66
2022/09/19 08:37:37;;;;;;;10.85;2.03;;;15.50;99.90;;;;;;5050882;28;20479;-66
2022/09/19 08:40:15;;;;;;;9.95;2.10;;;15.50;99.90;;;;;;5049721;28;20041;-66
2022/09/19 08:42:58;;;;;;;12.38;2.47;;;15.90;99.90;;;;;;5050543;28;20437;-66
2022/09/19 08:45:59;;;;;;;18.20;2.88;;;15.90;99.90;;;;;;5040137;28;20056;-65
2022/09/19 08:48:39;;;;;;;10.75;2.45;;;16.00;99.90;;;;;;5034518;28;20488;-66
2022/09/19 08:51:24;;;;;;;9.10;1.90;;;16.90;99.90;;;;;;5041072;28;20034;-66
2022/09/19 08:54:03;;;;;;;18.15;2.80;;;17.30;99.90;;;;;;5046832;28;20441;-65
2022/09/19 08:56:29;;;;;;;7.30;2.22;;;18.10;99.90;;;;;;5051621;28;20044;-66
2022/09/19 08:59:02;;;;;;;13.25;2.28;;;19.00;99.90;;;;;;5041476;28;20072;-66
2022/09/19 09:01:35;;;;;;;13.23;3.40;;;19.50;99.90;;;;;;5044948;28;20056;-66
2022/09/19 09:04:17;;;;;;;7.35;1.70;;;20.70;99.90;;;;;;5051979;28;20140;-66
2022/09/19 09:06:50;;;;;;;13.52;2.03;;;21.00;99.90;;;;;;5047397;28;20042;-66
2022/09/19 09:09:37;;;;;;;11.63;2.13;;;21.80;99.90;;;;;;5042596;28;20048;-66
2022/09/19 09:12:26;;;;;;;12.48;2.45;;;20.50;99.90;;;;;;5050384;28;20076;-66
2022/09/19 09:15:04;;;;;;;11.18;1.90;;;19.80;99.90;;;;;;5048779;28;20052;-65
2022/09/19 09:17:52;;;;;;;8.95;1.73;;;18.80;99.90;;;;;;5048293;28;20521;-66
2022/09/19 09:20:41;;;;;;;8.65;1.80;;;18.20;99.90;;;;;;5050232;28;20067;-66
2022/09/19 09:23:19;;;;;;;13.15;2.22;;;18.50;99.90;;;;;;5033538;28;20044;-65
2022/09/19 09:25:52;;;;;;;8.95;2.28;;;17.70;99.90;;;;;;5051368;28;20249;-65
2022/09/19 09:28:46;;;;;;;8.20;1.90;;;17.70;99.90;;;;;;5050016;28;20091;-65
2022/09/19 09:31:24;;;;;;;8.88;2.85;;;17.70;99.90;;;;;;5049429;28;20040;-66
2022/09/19 09:34:02;;;;;;;10.77;1.48;;;17.60;99.90;;;;;;5049942;28;20105;-65
2022/09/19 09:36:36;;;;;;;18.58;2.45;;;17.80;99.90;;;;;;5051189;28;20454;-65
2022/09/19 09:39:13;;;;;;;11.27;2.40;;;18.10;99.90;;;;;;5051121;28;20056;-65
2022/09/19 09:41:47;;;;;;;10.40;1.52;;;18.30;99.90;;;;;;5050974;28;20041;-65
2022/09/19 09:44:13;;;;;;;7.28;1.52;;;18.40;99.90;;;;;;5050591;28;20498;-65
2022/09/19 09:46:52;;;;;;;7.53;1.55;;;18.50;99.90;;;;;;5051103;28;20041;-65
2022/09/19 09:49:22;;;;;;;6.68;1.60;;;18.30;99.90;;;;;;5049766;28;20482;-66
2022/09/19 09:52:09;;;;;;;8.73;1.23;;;18.50;99.90;;;;;;5047239;28;20099;-65
2022/09/19 09:57:33;;;;;;;9.45;1.17;;;18.50;99.90;;;;;;5049153;28;20634;-65
2022/09/19 10:05:55;;;;;;;11.50;1.30;;;17.30;99.90;;;;;;5048945;28;20045;-65
2022/09/19 10:08:30;;;;;;;8.38;1.20;;;17.40;99.90;;;;;;5050468;28;20045;-68
2022/09/19 10:11:02;;;;;;;8.50;1.30;;;16.90;99.90;;;;;;5049301;28;20079;-66
2022/09/19 10:13:32;;;;;;;9.40;1.85;;;16.60;99.90;;;;;;5050356;28;20076;-65
2022/09/19 10:16:02;;;;;;;11.82;2.63;;;16.40;99.90;;;;;;5050403;28;20056;-65
2022/09/19 10:18:38;;;;;;;8.75;1.58;;;16.20;99.90;;;;;;5048644;28;20049;-65
2022/09/19 10:21:04;;;;;;;6.55;1.55;;;16.20;99.90;;;;;;5048469;28;20071;-65
2022/09/19 10:23:32;;;;;;;14.80;2.08;;;16.00;99.90;;;;;;5048069;28;20049;-65
2022/09/19 10:26:03;;;;;;;9.73;1.85;;;16.30;99.90;;;;;;5049415;28;20075;-65
2022/09/19 10:28:41;;;;;;;9.50;1.45;;;16.30;99.90;;;;;;5031561;28;20083;-65
2022/09/19 10:31:38;;;;;;;7.70;1.20;;;16.30;99.90;;;;;;5048127;28;20112;-65
2022/09/19 10:34:21;;;;;;;9.15;1.50;;;16.40;99.90;;;;;;5048525;28;20552;-65
2022/09/19 10:36:47;;;;;;;9.63;1.42;;;16.40;99.90;;;;;;5033913;28;20036;-65
2022/09/19 10:39:17;;;;;;;7.75;1.42;;;16.50;99.90;;;;;;5050816;28;20052;-65
2022/09/19 10:41:43;;;;;;;7.07;1.20;;;16.60;99.90;;;;;;5045764;28;20049;-66
2022/09/19 10:44:26;;;;;;;8.07;1.20;;;16.60;99.90;;;;;;5052718;28;20503;-64
2022/09/19 10:46:58;;;;;;;11.55;2.35;;;16.60;99.90;;;;;;5051976;28;20517;-65
2022/09/19 10:49:34;;;;;;;10.52;1.80;;;16.70;99.90;;;;;;5050674;28;20521;-65
2022/09/19 10:52:01;;;;;;;9.77;2.03;;;16.70;99.90;;;;;;5052179;28;20051;-65
2022/09/19 10:54:42;;;;;;;9.00;1.60;;;16.80;99.90;;;;;;5049390;28;20041;-65
2022/09/19 10:57:48;;;;;;;14.55;2.10;;;16.70;99.90;;;;;;5048295;28;20045;-65
2022/09/19 11:00:23;;;;;;;14.80;1.92;;;16.70;99.90;;;;;;5051626;28;20554;-65
2022/09/19 11:03:25;;;;;;;14.27;2.42;;;16.70;99.90;;;;;;5051749;28;20438;-65
2022/09/19 11:06:16;;;;;;;10.10;1.85;;;16.60;99.90;;;;;;5051750;28;20464;-65
2022/09/19 11:08:51;;;;;;;19.23;2.28;;;16.60;99.90;;;;;;5050560;28;20041;-65
2022/09/19 11:11:46;;;;;;;10.52;2.15;;;16.50;99.90;;;;;;5050470;28;20090;-64
2022/09/19 11:14:19;;;;;;;20.30;2.38;;;16.60;99.90;;;;;;5046426;28;20032;-64
2022/09/19 11:16:57;;;;;;;9.95;3.13;;;16.50;99.90;;;;;;5050093;28;20466;-65
2022/09/19 11:19:36;;;;;;;12.75;1.90;;;16.30;99.90;;;;;;5051581;28;20032;-65
2022/09/19 11:22:18;;;;;;;8.75;1.33;;;15.70;99.90;;;;;;5050147;28;20049;-66
2022/09/19 11:25:01;;;;;;;7.55;1.40;;;15.60;99.90;;;;;;5051499;28;20041;-66
2022/09/19 11:28:12;;;;;;;8.63;1.55;;;15.20;99.90;;;;;;5064452;28;20037;-65
2022/09/19 11:31:05;;;;;;;7.93;1.58;;;14.90;99.90;;;;;;5050627;28;20045;-65
2022/09/19 11:33:46;;;;;;;9.50;1.58;;;14.60;99.90;;;;;;5046700;28;20033;-65
2022/09/19 11:36:30;;;;;;;7.40;1.35;;;14.50;99.90;;;;;;5051580;28;20491;-65
2022/09/19 11:39:27;;;;;;;10.35;1.95;;;14.30;99.90;;;;;;5050001;28;20132;-64
2022/09/19 11:42:25;;;;;;;16.38;1.70;;;14.50;99.90;;;;;;5049784;28;20037;-65
2022/09/19 11:45:16;;;;;;;11.68;1.85;;;14.40;99.90;;;;;;5036423;28;20056;-65
2022/09/19 11:48:01;;;;;;;12.18;2.22;;;14.50;99.90;;;;;;5051002;28;20044;-64
2022/09/19 11:50:41;;;;;;;8.25;2.00;;;14.40;99.90;;;;;;5049326;28;20041;-64
2022/09/19 11:53:38;;;;;;;15.48;1.75;;;14.70;99.90;;;;;;5053677;28;20030;-65
2022/09/19 11:56:43;;;;;;;12.45;2.20;;;14.70;99.90;;;;;;5045943;28;20475;-64
2022/09/19 11:59:45;;;;;;;13.27;2.05;;;14.80;99.90;;;;;;5048230;28;20052;-64
2022/09/19 12:02:51;;;;;;;5.53;1.15;;;15.00;99.90;;;;;;5050712;28;20045;-65
2022/09/19 12:05:28;;;;;;;11.82;1.60;;;15.10;99.90;;;;;;5048923;28;20443;-65
2022/09/19 12:08:09;;;;;;;12.52;1.65;;;15.30;99.90;;;;;;5050898;28;20051;-65
2022/09/19 12:10:43;;;;;;;12.52;2.78;;;15.40;99.90;;;;;;5050074;28;20120;-65
2022/09/19 12:13:33;;;;;;;7.40;1.10;;;15.30;99.90;;;;;;5048790;28;20083;-66
2022/09/19 12:16:04;;;;;;;16.10;1.85;;;15.50;99.90;;;;;;5049668;28;20029;-65
2022/09/19 12:18:42;;;;;;;13.50;3.53;;;15.50;99.90;;;;;;5050948;28;20037;-64
2022/09/19 12:21:09;;;;;;;14.93;2.17;;;15.60;99.90;;;;;;5052266;28;20098;-64
2022/09/19 12:26:53;;;;;;;10.27;1.83;;;15.60;99.90;;;;;;5052299;28;20099;-65
2022/09/19 12:29:39;;;;;;;13.43;1.92;;;15.60;99.90;;;;;;5053750;28;20029;-64
2022/09/19 12:32:56;;;;;;;16.08;2.20;;;15.80;99.90;;;;;;5053478;28;20391;-65
2022/09/19 12:35:43;;;;;;;15.18;3.15;;;15.70;99.90;;;;;;5038768;28;20121;-63
2022/09/19 12:38:33;;;;;;;15.70;1.88;;;15.90;99.90;;;;;;5053343;28;20044;-63
2022/09/19 12:41:25;;;;;;;15.75;3.33;;;15.90;99.90;;;;;;5068887;28;20487;-65
2022/09/19 12:44:13;;;;;;;11.02;2.08;;;15.90;99.90;;;;;;5051059;28;20063;-65
2022/09/19 12:46:41;;;;;;;10.50;1.98;;;16.00;99.90;;;;;;5052726;28;20056;-65
2022/09/19 12:49:27;;;;;;;8.68;1.40;;;16.30;99.90;;;;;;5050387;28;20332;-65
2022/09/19 12:52:00;;;;;;;7.97;1.23;;;16.00;99.90;;;;;;5050572;28;20048;-65
2022/09/19 12:54:45;;;;;;;8.63;1.15;;;16.00;99.90;;;;;;5052869;28;20112;-66
2022/09/19 12:57:36;;;;;;;7.10;1.52;;;15.70;99.90;;;;;;5049295;28;20041;-65
2022/09/19 13:00:03;;;;;;;7.68;1.08;;;15.70;99.90;;;;;;5053830;28;20505;-66
2022/09/19 13:02:34;;;;;;;8.23;1.20;;;15.80;99.90;;;;;;5046780;28;20052;-65
2022/09/19 13:05:26;;;;;;;5.78;1.00;;;15.60;99.90;;;;;;5053201;28;20120;-65
2022/09/19 13:08:13;;;;;;;4.57;1.95;;;15.70;99.90;;;;;;5053144;28;20078;-65
2022/09/19 13:10:46;;;;;;;5.97;1.10;;;15.70;99.90;;;;;;5068798;28;20376;-65
2022/09/19 13:13:30;;;;;;;4.57;0.90;;;15.70;99.90;;;;;;5052298;28;20036;-65
2022/09/19 13:16:04;;;;;;;5.18;1.15;;;15.70;99.90;;;;;;5048701;28;20099;-65
2022/09/19 13:24:57;;;;;;;10.30;1.90;;;15.60;99.90;;;;;;5050355;28;20045;-65
2022/09/19 13:27:23;;;;;;;;;;;15.70;99.90;;;;;;5042546;28;20410;-65
2022/09/19 13:29:51;;;;;;;11.48;1.48;;;15.50;99.90;;;;;;5054122;28;20341;-65
2022/09/19 13:32:52;;;;;;;6.30;1.20;;;15.60;99.90;;;;;;5051439;28;20403;-65
2022/09/19 13:35:22;;;;;;;7.93;1.45;;;15.60;99.90;;;;;;5042624;28;20120;-65
2022/09/19 13:37:52;;;;;;;11.50;1.83;;;15.50;99.90;;;;;;5052456;28;20045;-65
2022/09/19 13:40:39;;;;;;;10.05;1.42;;;15.50;99.90;;;;;;5053885;28;20064;-65
2022/09/19 13:43:23;;;;;;;11.20;2.45;;;15.60;99.90;;;;;;5050186;28;20040;-65